sensor_id;sensor_type;location;lat;lon;timestamp;temperature;humidity
10443;DHT22;5269;51.146;16.986;2024-01-25T00:00:54;7.50;99.90
10443;DHT22;5269;51.146;16.986;2024-01-25T00:03:21;7.50;99.90
10443;DHT22;5269;51.146;16.986;2024-01-25T00:05:48;7.60;99.90
10443;DHT22;5269;51.146;16.986;2024-01-25T00:08:15;7.60;99.90
10443;DHT22;5269;51.146;16.986;2024-01-25T00:10:42;7.60;99.90
10443;DHT22;5269;51.146;16.986;2024-01-25T00:13:09;7.60;99.90
10443;DHT22;5269;51.146;16.986;2024-01-25T00:15:36;7.60;99.90
10443;DHT22;5269;51.146;16.986;2024-01-25T00:18:04;7.60;9.90
10443;DHT22;5269;51.146;16.986;2024-01-25T00:20:31;7.70;1.00
10443;DHT22;5269;51.146;16.986;2024-01-25T00:22:58;7.70;1.00
10443;DHT22;5269;51.146;16.986;2024-01-25T00:25:25;7.80;1.00
10443;DHT22;5269;51.146;16.986;2024-01-25T00:27:52;7.70;1.00
10443;DHT22;5269;51.146;16.986;2024-01-25T00:30:19;7.90;1.00
10443;DHT22;5269;51.146;16.986;2024-01-25T00:32:46;7.80;1.00
10443;DHT22;5269;51.146;16.986;2024-01-25T00:35:15;7.70;1.00
10443;DHT22;5269;51.146;16.986;2024-01-25T00:37:42;7.70;1.00
10443;DHT22;5269;51.146;16.986;2024-01-25T00:40:10;7.70;1.00
10443;DHT22;5269;51.146;16.986;2024-01-25T00:42:41;7.70;1.00
10443;DHT22;5269;51.146;16.986;2024-01-25T00:45:09;7.70;1.00
10443;DHT22;5269;51.146;16.986;2024-01-25T00:47:37;7.70;1.00
10443;DHT22;5269;51.146;16.986;2024-01-25T00:50:05;7.80;1.00
10443;DHT22;5269;51.146;16.986;2024-01-25T00:52:34;7.90;1.00
10443;DHT22;5269;51.146;16.986;2024-01-25T00:55:02;7.90;1.00
10443;DHT22;5269;51.146;16.986;2024-01-25T00:57:29;7.80;1.00
10443;DHT22;5269;51.146;16.986;2024-01-25T00:59:57;7.90;1.00
10443;DHT22;5269;51.146;16.986;2024-01-25T01:02:25;7.90;1.00
10443;DHT22;5269;51.146;16.986;2024-01-25T01:04:56;7.90;1.00
10443;DHT22;5269;51.146;16.986;2024-01-25T01:07:24;7.80;1.00
10443;DHT22;5269;51.146;16.986;2024-01-25T01:09:52;7.90;1.00
10443;DHT22;5269;51.146;16.986;2024-01-25T01:12:19;7.80;1.00
10443;DHT22;5269;51.146;16.986;2024-01-25T01:14:46;7.80;1.00
10443;DHT22;5269;51.146;16.986;2024-01-25T01:17:13;7.80;1.00
10443;DHT22;5269;51.146;16.986;2024-01-25T01:19:40;7.80;1.00
10443;DHT22;5269;51.146;16.986;2024-01-25T01:22:08;7.90;1.00
10443;DHT22;5269;51.146;16.986;2024-01-25T01:24:35;7.90;1.00
10443;DHT22;5269;51.146;16.986;2024-01-25T01:27:03;7.90;1.00
10443;DHT22;5269;51.146;16.986;2024-01-25T01:29:30;7.90;1.00
10443;DHT22;5269;51.146;16.986;2024-01-25T01:31:57;7.90;1.00
10443;DHT22;5269;51.146;16.986;2024-01-25T01:34:24;8.00;1.00
10443;DHT22;5269;51.146;16.986;2024-01-25T01:36:51;8.00;1.00
10443;DHT22;5269;51.146;16.986;2024-01-25T01:39:18;8.00;1.00
10443;DHT22;5269;51.146;16.986;2024-01-25T01:41:47;8.00;1.00
10443;DHT22;5269;51.146;16.986;2024-01-25T01:44:15;8.00;1.00
10443;DHT22;5269;51.146;16.986;2024-01-25T01:46:42;8.00;1.00
10443;DHT22;5269;51.146;16.986;2024-01-25T01:49:11;8.00;1.00
10443;DHT22;5269;51.146;16.986;2024-01-25T01:51:39;8.00;1.00
10443;DHT22;5269;51.146;16.986;2024-01-25T01:54:07;7.90;1.00
10443;DHT22;5269;51.146;16.986;2024-01-25T01:56:34;8.00;1.00
10443;DHT22;5269;51.146;16.986;2024-01-25T01:59:02;8.00;1.00
10443;DHT22;5269;51.146;16.986;2024-01-25T02:01:31;8.00;1.00
10443;DHT22;5269;51.146;16.986;2024-01-25T02:03:58;8.00;1.00
10443;DHT22;5269;51.146;16.986;2024-01-25T02:06:25;7.90;1.00
10443;DHT22;5269;51.146;16.986;2024-01-25T02:08:52;8.00;1.00
10443;DHT22;5269;51.146;16.986;2024-01-25T02:11:21;7.90;1.00
10443;DHT22;5269;51.146;16.986;2024-01-25T02:13:48;7.90;1.00
10443;DHT22;5269;51.146;16.986;2024-01-25T02:16:15;7.90;1.00
10443;DHT22;5269;51.146;16.986;2024-01-25T02:18:44;7.80;1.00
10443;DHT22;5269;51.146;16.986;2024-01-25T02:21:11;7.90;1.00
10443;DHT22;5269;51.146;16.986;2024-01-25T02:23:39;7.80;1.00
10443;DHT22;5269;51.146;16.986;2024-01-25T02:26:06;7.80;1.00
10443;DHT22;5269;51.146;16.986;2024-01-25T02:28:33;7.90;1.00
10443;DHT22;5269;51.146;16.986;2024-01-25T02:31:02;7.80;1.00
10443;DHT22;5269;51.146;16.986;2024-01-25T02:33:29;7.80;1.00
10443;DHT22;5269;51.146;16.986;2024-01-25T02:35:57;7.80;1.00
10443;DHT22;5269;51.146;16.986;2024-01-25T02:38:23;7.80;1.00
10443;DHT22;5269;51.146;16.986;2024-01-25T02:40:52;7.80;1.00
10443;DHT22;5269;51.146;16.986;2024-01-25T02:43:20;7.80;1.00
10443;DHT22;5269;51.146;16.986;2024-01-25T02:45:47;7.80;1.00
10443;DHT22;5269;51.146;16.986;2024-01-25T02:48:14;7.80;1.00
10443;DHT22;5269;51.146;16.986;2024-01-25T02:50:41;7.90;1.00
10443;DHT22;5269;51.146;16.986;2024-01-25T02:53:08;7.80;1.00
10443;DHT22;5269;51.146;16.986;2024-01-25T02:55:35;7.80;1.00
10443;DHT22;5269;51.146;16.986;2024-01-25T02:58:04;7.90;1.00
10443;DHT22;5269;51.146;16.986;2024-01-25T03:00:30;7.90;1.00
10443;DHT22;5269;51.146;16.986;2024-01-25T03:02:57;7.90;1.00
10443;DHT22;5269;51.146;16.986;2024-01-25T03:05:24;8.00;1.00
10443;DHT22;5269;51.146;16.986;2024-01-25T03:07:51;8.00;1.00
10443;DHT22;5269;51.146;16.986;2024-01-25T03:10:18;7.90;1.00
10443;DHT22;5269;51.146;16.986;2024-01-25T03:12:45;7.90;1.00
10443;DHT22;5269;51.146;16.986;2024-01-25T03:15:14;8.00;1.00
10443;DHT22;5269;51.146;16.986;2024-01-25T03:17:41;8.00;1.00
10443;DHT22;5269;51.146;16.986;2024-01-25T03:20:09;8.00;1.00
10443;DHT22;5269;51.146;16.986;2024-01-25T03:22:36;8.00;1.00
10443;DHT22;5269;51.146;16.986;2024-01-25T03:25:04;8.00;1.00
10443;DHT22;5269;51.146;16.986;2024-01-25T03:27:31;8.00;1.00
10443;DHT22;5269;51.146;16.986;2024-01-25T03:29:57;8.00;1.00
10443;DHT22;5269;51.146;16.986;2024-01-25T03:32:26;8.00;1.00
10443;DHT22;5269;51.146;16.986;2024-01-25T03:34:53;8.00;1.00
10443;DHT22;5269;51.146;16.986;2024-01-25T03:37:19;8.00;1.00
10443;DHT22;5269;51.146;16.986;2024-01-25T03:39:46;8.00;1.00
10443;DHT22;5269;51.146;16.986;2024-01-25T03:42:13;8.00;1.00
10443;DHT22;5269;51.146;16.986;2024-01-25T03:44:40;7.90;1.00
10443;DHT22;5269;51.146;16.986;2024-01-25T03:47:08;7.90;1.00
10443;DHT22;5269;51.146;16.986;2024-01-25T03:49:36;7.90;1.00
10443;DHT22;5269;51.146;16.986;2024-01-25T03:52:04;8.00;1.00
10443;DHT22;5269;51.146;16.986;2024-01-25T03:54:31;8.00;1.00
10443;DHT22;5269;51.146;16.986;2024-01-25T03:56:58;8.00;1.00
10443;DHT22;5269;51.146;16.986;2024-01-25T03:59:24;7.90;1.00
10443;DHT22;5269;51.146;16.986;2024-01-25T04:01:51;8.00;1.00
10443;DHT22;5269;51.146;16.986;2024-01-25T04:04:18;8.00;1.00
10443;DHT22;5269;51.146;16.986;2024-01-25T04:06:47;8.00;1.00
10443;DHT22;5269;51.146;16.986;2024-01-25T04:09:13;8.00;1.00
10443;DHT22;5269;51.146;16.986;2024-01-25T04:11:41;7.90;1.00
10443;DHT22;5269;51.146;16.986;2024-01-25T04:14:08;7.90;1.00
10443;DHT22;5269;51.146;16.986;2024-01-25T04:16:34;8.00;1.00
10443;DHT22;5269;51.146;16.986;2024-01-25T04:19:01;7.90;1.00
10443;DHT22;5269;51.146;16.986;2024-01-25T04:21:28;7.80;1.00
10443;DHT22;5269;51.146;16.986;2024-01-25T04:23:56;7.70;1.00
10443;DHT22;5269;51.146;16.986;2024-01-25T04:26:24;7.70;1.00
10443;DHT22;5269;51.146;16.986;2024-01-25T04:28:50;7.60;1.00
10443;DHT22;5269;51.146;16.986;2024-01-25T04:31:17;7.60;1.00
10443;DHT22;5269;51.146;16.986;2024-01-25T04:33:44;7.40;1.00
10443;DHT22;5269;51.146;16.986;2024-01-25T04:36:11;7.50;1.00
10443;DHT22;5269;51.146;16.986;2024-01-25T04:38:38;7.50;1.00
10443;DHT22;5269;51.146;16.986;2024-01-25T04:41:06;7.50;1.00
10443;DHT22;5269;51.146;16.986;2024-01-25T04:43:34;7.50;1.00
10443;DHT22;5269;51.146;16.986;2024-01-25T04:46:02;7.40;1.00
10443;DHT22;5269;51.146;16.986;2024-01-25T04:48:29;7.50;1.00
10443;DHT22;5269;51.146;16.986;2024-01-25T04:50:56;7.30;1.00
10443;DHT22;5269;51.146;16.986;2024-01-25T04:53:23;7.20;93.40
10443;DHT22;5269;51.146;16.986;2024-01-25T04:55:50;7.30;1.00
10443;DHT22;5269;51.146;16.986;2024-01-25T04:58:19;7.20;1.00
10443;DHT22;5269;51.146;16.986;2024-01-25T05:00:45;7.40;1.00
10443;DHT22;5269;51.146;16.986;2024-01-25T05:03:12;7.40;1.00
10443;DHT22;5269;51.146;16.986;2024-01-25T05:05:39;7.40;1.00
10443;DHT22;5269;51.146;16.986;2024-01-25T05:08:06;7.40;1.00
10443;DHT22;5269;51.146;16.986;2024-01-25T05:10:33;7.40;1.00
10443;DHT22;5269;51.146;16.986;2024-01-25T05:13:00;7.50;1.00
10443;DHT22;5269;51.146;16.986;2024-01-25T05:15:28;7.40;1.00
10443;DHT22;5269;51.146;16.986;2024-01-25T05:17:55;7.40;1.00
10443;DHT22;5269;51.146;16.986;2024-01-25T05:20:22;7.50;1.00
10443;DHT22;5269;51.146;16.986;2024-01-25T05:22:49;7.50;1.00
10443;DHT22;5269;51.146;16.986;2024-01-25T05:25:16;7.60;1.00
10443;DHT22;5269;51.146;16.986;2024-01-25T05:27:43;7.50;1.00
10443;DHT22;5269;51.146;16.986;2024-01-25T05:30:10;7.50;1.00
10443;DHT22;5269;51.146;16.986;2024-01-25T05:32:39;7.50;1.00
10443;DHT22;5269;51.146;16.986;2024-01-25T05:35:07;7.50;1.00
10443;DHT22;5269;51.146;16.986;2024-01-25T05:37:34;7.50;1.00
10443;DHT22;5269;51.146;16.986;2024-01-25T05:40:02;7.40;1.00
10443;DHT22;5269;51.146;16.986;2024-01-25T05:42:28;7.40;1.00
10443;DHT22;5269;51.146;16.986;2024-01-25T05:44:55;7.40;1.00
10443;DHT22;5269;51.146;16.986;2024-01-25T05:47:22;7.30;1.00
10443;DHT22;5269;51.146;16.986;2024-01-25T05:49:51;7.30;1.00
10443;DHT22;5269;51.146;16.986;2024-01-25T05:52:18;7.20;1.00
10443;DHT22;5269;51.146;16.986;2024-01-25T05:54:46;7.20;1.00
10443;DHT22;5269;51.146;16.986;2024-01-25T05:57:13;7.20;1.00
10443;DHT22;5269;51.146;16.986;2024-01-25T05:59:40;7.20;22.10
10443;DHT22;5269;51.146;16.986;2024-01-25T06:02:07;7.20;99.90
10443;DHT22;5269;51.146;16.986;2024-01-25T06:04:35;7.10;99.90
10443;DHT22;5269;51.146;16.986;2024-01-25T06:07:04;7.00;99.90
10443;DHT22;5269;51.146;16.986;2024-01-25T06:09:31;7.10;99.90
10443;DHT22;5269;51.146;16.986;2024-01-25T06:11:58;7.00;99.90
10443;DHT22;5269;51.146;16.986;2024-01-25T06:14:25;7.10;99.90
10443;DHT22;5269;51.146;16.986;2024-01-25T06:16:52;7.00;99.90
10443;DHT22;5269;51.146;16.986;2024-01-25T06:19:18;7.00;1.00
10443;DHT22;5269;51.146;16.986;2024-01-25T06:21:45;7.00;1.00
10443;DHT22;5269;51.146;16.986;2024-01-25T06:24:14;7.10;99.90
10443;DHT22;5269;51.146;16.986;2024-01-25T06:26:40;7.10;99.90
10443;DHT22;5269;51.146;16.986;2024-01-25T06:29:07;7.10;99.90
10443;DHT22;5269;51.146;16.986;2024-01-25T06:31:41;7.10;99.90
10443;DHT22;5269;51.146;16.986;2024-01-25T06:34:08;7.20;99.90
10443;DHT22;5269;51.146;16.986;2024-01-25T06:36:35;7.30;1.00
10443;DHT22;5269;51.146;16.986;2024-01-25T06:39:02;7.30;1.00
10443;DHT22;5269;51.146;16.986;2024-01-25T06:41:32;7.40;1.00
10443;DHT22;5269;51.146;16.986;2024-01-25T06:43:59;7.40;1.00
10443;DHT22;5269;51.146;16.986;2024-01-25T06:46:26;7.40;1.00
10443;DHT22;5269;51.146;16.986;2024-01-25T06:48:53;7.30;1.00
10443;DHT22;5269;51.146;16.986;2024-01-25T06:51:20;7.40;1.00
10443;DHT22;5269;51.146;16.986;2024-01-25T06:53:47;7.50;1.00
10443;DHT22;5269;51.146;16.986;2024-01-25T06:56:13;7.50;1.00
10443;DHT22;5269;51.146;16.986;2024-01-25T06:58:42;7.50;1.00
10443;DHT22;5269;51.146;16.986;2024-01-25T07:01:09;7.50;1.00
10443;DHT22;5269;51.146;16.986;2024-01-25T07:03:36;7.60;1.00
10443;DHT22;5269;51.146;16.986;2024-01-25T07:06:03;7.50;1.00
10443;DHT22;5269;51.146;16.986;2024-01-25T07:08:30;7.60;1.00
10443;DHT22;5269;51.146;16.986;2024-01-25T07:10:57;7.60;1.00
10443;DHT22;5269;51.146;16.986;2024-01-25T07:13:26;7.60;1.00
10443;DHT22;5269;51.146;16.986;2024-01-25T07:15:55;7.60;1.00
10443;DHT22;5269;51.146;16.986;2024-01-25T07:18:21;7.70;1.00
10443;DHT22;5269;51.146;16.986;2024-01-25T07:20:50;7.70;1.00
10443;DHT22;5269;51.146;16.986;2024-01-25T07:23:17;7.80;1.00
10443;DHT22;5269;51.146;16.986;2024-01-25T07:25:44;7.80;1.00
10443;DHT22;5269;51.146;16.986;2024-01-25T07:28:11;7.80;1.00
10443;DHT22;5269;51.146;16.986;2024-01-25T07:30:38;7.90;1.00
10443;DHT22;5269;51.146;16.986;2024-01-25T07:33:06;7.90;1.00
10443;DHT22;5269;51.146;16.986;2024-01-25T07:35:33;7.90;1.00
10443;DHT22;5269;51.146;16.986;2024-01-25T07:38:01;7.90;1.00
10443;DHT22;5269;51.146;16.986;2024-01-25T07:40:27;7.80;1.00
10443;DHT22;5269;51.146;16.986;2024-01-25T07:42:54;7.90;1.00
10443;DHT22;5269;51.146;16.986;2024-01-25T07:45:21;7.90;1.00
10443;DHT22;5269;51.146;16.986;2024-01-25T07:47:48;8.00;1.00
10443;DHT22;5269;51.146;16.986;2024-01-25T07:50:17;7.90;1.00
10443;DHT22;5269;51.146;16.986;2024-01-25T07:52:43;8.00;1.00
10443;DHT22;5269;51.146;16.986;2024-01-25T07:55:11;7.90;1.00
10443;DHT22;5269;51.146;16.986;2024-01-25T07:57:37;8.00;1.00
10443;DHT22;5269;51.146;16.986;2024-01-25T08:00:06;8.00;1.00
10443;DHT22;5269;51.146;16.986;2024-01-25T08:02:34;8.00;1.00
10443;DHT22;5269;51.146;16.986;2024-01-25T08:05:01;8.00;1.00
10443;DHT22;5269;51.146;16.986;2024-01-25T08:07:29;8.00;1.00
10443;DHT22;5269;51.146;16.986;2024-01-25T08:09:57;8.00;1.00
10443;DHT22;5269;51.146;16.986;2024-01-25T08:12:24;8.00;1.00
10443;DHT22;5269;51.146;16.986;2024-01-25T08:14:51;8.00;1.00
10443;DHT22;5269;51.146;16.986;2024-01-25T08:17:18;8.00;1.00
10443;DHT22;5269;51.146;16.986;2024-01-25T08:19:45;8.00;1.00
10443;DHT22;5269;51.146;16.986;2024-01-25T08:22:12;8.00;1.00
10443;DHT22;5269;51.146;16.986;2024-01-25T08:24:41;8.00;1.00
10443;DHT22;5269;51.146;16.986;2024-01-25T08:27:09;7.90;1.00
10443;DHT22;5269;51.146;16.986;2024-01-25T08:29:36;8.00;1.00
10443;DHT22;5269;51.146;16.986;2024-01-25T08:32:04;8.00;1.00
10443;DHT22;5269;51.146;16.986;2024-01-25T08:34:30;8.00;1.00
10443;DHT22;5269;51.146;16.986;2024-01-25T08:36:57;8.00;1.00
10443;DHT22;5269;51.146;16.986;2024-01-25T08:39:24;7.90;1.00
10443;DHT22;5269;51.146;16.986;2024-01-25T08:41:53;7.90;1.00
10443;DHT22;5269;51.146;16.986;2024-01-25T08:44:20;7.90;1.00
10443;DHT22;5269;51.146;16.986;2024-01-25T08:46:47;7.90;1.00
10443;DHT22;5269;51.146;16.986;2024-01-25T08:49:23;7.90;1.00
10443;DHT22;5269;51.146;16.986;2024-01-25T08:51:50;7.90;1.00
10443;DHT22;5269;51.146;16.986;2024-01-25T08:54:16;7.90;1.00
10443;DHT22;5269;51.146;16.986;2024-01-25T08:56:46;7.90;1.00
10443;DHT22;5269;51.146;16.986;2024-01-25T09:02:10;7.90;1.00
10443;DHT22;5269;51.146;16.986;2024-01-25T09:04:37;8.00;1.00
10443;DHT22;5269;51.146;16.986;2024-01-25T09:07:06;8.00;1.00
10443;DHT22;5269;51.146;16.986;2024-01-25T09:09:32;8.00;1.00
10443;DHT22;5269;51.146;16.986;2024-01-25T09:11:59;8.00;1.00
10443;DHT22;5269;51.146;16.986;2024-01-25T09:14:28;8.00;1.00
10443;DHT22;5269;51.146;16.986;2024-01-25T09:17:07;8.00;1.00
10443;DHT22;5269;51.146;16.986;2024-01-25T09:19:35;8.00;1.00
10443;DHT22;5269;51.146;16.986;2024-01-25T09:22:03;8.10;1.00
10443;DHT22;5269;51.146;16.986;2024-01-25T09:24:30;8.10;1.00
10443;DHT22;5269;51.146;16.986;2024-01-25T09:30:04;8.10;1.00
10443;DHT22;5269;51.146;16.986;2024-01-25T09:32:32;8.00;1.00
10443;DHT22;5269;51.146;16.986;2024-01-25T09:35:02;8.10;1.00
10443;DHT22;5269;51.146;16.986;2024-01-25T09:37:28;8.10;1.00
10443;DHT22;5269;51.146;16.986;2024-01-25T09:39:55;8.10;1.00
10443;DHT22;5269;51.146;16.986;2024-01-25T09:43:02;8.10;1.00
10443;DHT22;5269;51.146;16.986;2024-01-25T09:49:18;8.10;1.00
10443;DHT22;5269;51.146;16.986;2024-01-25T09:55:12;8.00;1.00
10443;DHT22;5269;51.146;16.986;2024-01-25T09:57:41;8.10;1.00
10443;DHT22;5269;51.146;16.986;2024-01-25T10:00:13;8.00;1.00
10443;DHT22;5269;51.146;16.986;2024-01-25T10:02:40;8.10;1.00
10443;DHT22;5269;51.146;16.986;2024-01-25T10:08:44;8.10;1.00
10443;DHT22;5269;51.146;16.986;2024-01-25T10:11:12;8.20;1.00
10443;DHT22;5269;51.146;16.986;2024-01-25T10:13:43;8.20;1.00
10443;DHT22;5269;51.146;16.986;2024-01-25T10:16:48;8.20;1.00
10443;DHT22;5269;51.146;16.986;2024-01-25T10:19:15;8.20;1.00
10443;DHT22;5269;51.146;16.986;2024-01-25T10:21:42;8.20;1.00
10443;DHT22;5269;51.146;16.986;2024-01-25T10:24:13;8.20;1.00
10443;DHT22;5269;51.146;16.986;2024-01-25T10:26:42;8.20;1.00
10443;DHT22;5269;51.146;16.986;2024-01-25T10:29:09;8.20;1.00
10443;DHT22;5269;51.146;16.986;2024-01-25T10:31:38;8.20;1.00
10443;DHT22;5269;51.146;16.986;2024-01-25T10:40:49;8.20;1.00
10443;DHT22;5269;51.146;16.986;2024-01-25T10:43:18;8.20;1.00
10443;DHT22;5269;51.146;16.986;2024-01-25T10:45:45;8.20;1.00
10443;DHT22;5269;51.146;16.986;2024-01-25T10:48:13;8.20;1.00
10443;DHT22;5269;51.146;16.986;2024-01-25T10:57:34;8.30;1.00
10443;DHT22;5269;51.146;16.986;2024-01-25T11:00:06;8.30;1.00
10443;DHT22;5269;51.146;16.986;2024-01-25T11:02:34;8.30;1.00
10443;DHT22;5269;51.146;16.986;2024-01-25T11:05:01;8.20;1.00
10443;DHT22;5269;51.146;16.986;2024-01-25T11:07:29;8.20;1.00
10443;DHT22;5269;51.146;16.986;2024-01-25T11:09:56;8.20;1.00
10443;DHT22;5269;51.146;16.986;2024-01-25T11:12:23;8.20;1.00
10443;DHT22;5269;51.146;16.986;2024-01-25T11:18:14;8.20;99.90
10443;DHT22;5269;51.146;16.986;2024-01-25T11:20:46;8.20;1.00
10443;DHT22;5269;51.146;16.986;2024-01-25T11:23:15;8.20;1.00
10443;DHT22;5269;51.146;16.986;2024-01-25T11:25:44;8.10;1.00
10443;DHT22;5269;51.146;16.986;2024-01-25T11:28:13;8.10;1.00
10443;DHT22;5269;51.146;16.986;2024-01-25T11:30:41;8.10;1.00
10443;DHT22;5269;51.146;16.986;2024-01-25T11:33:08;8.10;1.00
10443;DHT22;5269;51.146;16.986;2024-01-25T11:35:36;8.10;1.00
10443;DHT22;5269;51.146;16.986;2024-01-25T11:38:04;8.10;1.00
10443;DHT22;5269;51.146;16.986;2024-01-25T11:40:30;8.10;1.00
10443;DHT22;5269;51.146;16.986;2024-01-25T11:42:57;8.10;1.00
10443;DHT22;5269;51.146;16.986;2024-01-25T11:45:25;8.10;1.00
10443;DHT22;5269;51.146;16.986;2024-01-25T11:47:52;8.10;1.00
10443;DHT22;5269;51.146;16.986;2024-01-25T11:50:21;8.10;1.00
10443;DHT22;5269;51.146;16.986;2024-01-25T11:52:50;8.20;1.00
10443;DHT22;5269;51.146;16.986;2024-01-25T11:55:17;8.20;1.00
10443;DHT22;5269;51.146;16.986;2024-01-25T11:57:44;8.20;1.00
10443;DHT22;5269;51.146;16.986;2024-01-25T12:00:14;8.20;1.00
10443;DHT22;5269;51.146;16.986;2024-01-25T12:02:41;8.30;1.00
10443;DHT22;5269;51.146;16.986;2024-01-25T12:05:10;8.30;99.90
10443;DHT22;5269;51.146;16.986;2024-01-25T12:07:39;8.40;99.90
10443;DHT22;5269;51.146;16.986;2024-01-25T12:10:10;8.40;99.90
10443;DHT22;5269;51.146;16.986;2024-01-25T12:12:41;8.40;99.90
10443;DHT22;5269;51.146;16.986;2024-01-25T12:15:08;8.40;99.90
10443;DHT22;5269;51.146;16.986;2024-01-25T12:17:35;8.40;99.90
10443;DHT22;5269;51.146;16.986;2024-01-25T12:20:05;8.40;99.90
10443;DHT22;5269;51.146;16.986;2024-01-25T12:22:36;8.40;99.90
10443;DHT22;5269;51.146;16.986;2024-01-25T12:25:08;8.40;99.90
10443;DHT22;5269;51.146;16.986;2024-01-25T12:27:36;8.40;99.90
10443;DHT22;5269;51.146;16.986;2024-01-25T12:30:04;8.40;99.90
10443;DHT22;5269;51.146;16.986;2024-01-25T12:32:32;8.40;99.90
10443;DHT22;5269;51.146;16.986;2024-01-25T12:35:00;8.40;99.90
10443;DHT22;5269;51.146;16.986;2024-01-25T12:37:27;8.40;99.90
10443;DHT22;5269;51.146;16.986;2024-01-25T12:39:54;8.50;99.90
10443;DHT22;5269;51.146;16.986;2024-01-25T12:42:23;8.50;99.90
10443;DHT22;5269;51.146;16.986;2024-01-25T12:44:52;8.50;1.00
10443;DHT22;5269;51.146;16.986;2024-01-25T12:47:19;8.50;99.90
10443;DHT22;5269;51.146;16.986;2024-01-25T12:49:46;8.50;99.90
10443;DHT22;5269;51.146;16.986;2024-01-25T12:52:14;8.40;99.90
10443;DHT22;5269;51.146;16.986;2024-01-25T12:54:41;8.50;99.90
10443;DHT22;5269;51.146;16.986;2024-01-25T12:57:08;8.50;99.90
10443;DHT22;5269;51.146;16.986;2024-01-25T12:59:40;8.50;99.90
10443;DHT22;5269;51.146;16.986;2024-01-25T13:02:08;8.40;99.90
10443;DHT22;5269;51.146;16.986;2024-01-25T13:04:35;8.50;99.90
10443;DHT22;5269;51.146;16.986;2024-01-25T13:07:02;8.50;99.90
10443;DHT22;5269;51.146;16.986;2024-01-25T13:09:29;8.50;99.90
10443;DHT22;5269;51.146;16.986;2024-01-25T13:11:59;8.50;99.90
10443;DHT22;5269;51.146;16.986;2024-01-25T13:14:26;8.50;99.90
10443;DHT22;5269;51.146;16.986;2024-01-25T13:16:54;8.50;99.90
10443;DHT22;5269;51.146;16.986;2024-01-25T13:19:21;8.40;99.90
10443;DHT22;5269;51.146;16.986;2024-01-25T13:21:48;8.40;99.90
10443;DHT22;5269;51.146;16.986;2024-01-25T13:24:15;8.40;99.90
10443;DHT22;5269;51.146;16.986;2024-01-25T13:26:42;8.40;99.90
10443;DHT22;5269;51.146;16.986;2024-01-25T13:29:09;8.40;99.90
10443;DHT22;5269;51.146;16.986;2024-01-25T13:31:38;8.40;99.90
10443;DHT22;5269;51.146;16.986;2024-01-25T13:34:06;8.40;99.90
10443;DHT22;5269;51.146;16.986;2024-01-25T13:36:33;8.40;99.90
10443;DHT22;5269;51.146;16.986;2024-01-25T13:39:00;8.40;99.90
10443;DHT22;5269;51.146;16.986;2024-01-25T13:41:29;8.40;99.90
10443;DHT22;5269;51.146;16.986;2024-01-25T13:43:56;8.40;99.90
10443;DHT22;5269;51.146;16.986;2024-01-25T13:46:25;8.40;99.90
10443;DHT22;5269;51.146;16.986;2024-01-25T13:48:52;8.40;99.90
10443;DHT22;5269;51.146;16.986;2024-01-25T13:51:20;8.30;99.90
10443;DHT22;5269;51.146;16.986;2024-01-25T13:53:47;8.40;99.90
10443;DHT22;5269;51.146;16.986;2024-01-25T13:56:14;8.40;99.90
10443;DHT22;5269;51.146;16.986;2024-01-25T13:58:42;8.40;99.90
10443;DHT22;5269;51.146;16.986;2024-01-25T14:01:09;8.40;99.90
10443;DHT22;5269;51.146;16.986;2024-01-25T14:03:35;8.40;99.90
10443;DHT22;5269;51.146;16.986;2024-01-25T14:06:03;8.40;99.90
10443;DHT22;5269;51.146;16.986;2024-01-25T14:08:31;8.30;99.90
10443;DHT22;5269;51.146;16.986;2024-01-25T14:10:58;8.30;99.90
10443;DHT22;5269;51.146;16.986;2024-01-25T14:13:25;8.20;99.90
10443;DHT22;5269;51.146;16.986;2024-01-25T14:15:52;8.10;99.90
10443;DHT22;5269;51.146;16.986;2024-01-25T14:18:19;8.20;99.90
10443;DHT22;5269;51.146;16.986;2024-01-25T14:20:46;8.10;99.90
10443;DHT22;5269;51.146;16.986;2024-01-25T14:23:14;8.10;99.90
10443;DHT22;5269;51.146;16.986;2024-01-25T14:25:42;8.10;99.90
10443;DHT22;5269;51.146;16.986;2024-01-25T14:28:10;8.00;99.90
10443;DHT22;5269;51.146;16.986;2024-01-25T14:30:38;8.10;99.90
10443;DHT22;5269;51.146;16.986;2024-01-25T14:46:51;8.00;99.90
10443;DHT22;5269;51.146;16.986;2024-01-25T14:52:40;8.00;99.90
10443;DHT22;5269;51.146;16.986;2024-01-25T14:55:08;8.00;99.90
10443;DHT22;5269;51.146;16.986;2024-01-25T14:57:34;7.90;99.90
10443;DHT22;5269;51.146;16.986;2024-01-25T15:00:01;7.90;99.90
10443;DHT22;5269;51.146;16.986;2024-01-25T15:02:33;7.90;99.90
10443;DHT22;5269;51.146;16.986;2024-01-25T15:05:00;7.90;99.90
10443;DHT22;5269;51.146;16.986;2024-01-25T15:07:27;7.90;99.90
10443;DHT22;5269;51.146;16.986;2024-01-25T15:09:54;7.80;99.90
10443;DHT22;5269;51.146;16.986;2024-01-25T15:12:21;7.70;99.90
10443;DHT22;5269;51.146;16.986;2024-01-25T15:14:48;7.80;99.90
10443;DHT22;5269;51.146;16.986;2024-01-25T15:17:15;7.80;99.90
10443;DHT22;5269;51.146;16.986;2024-01-25T15:19:44;7.70;99.90
10443;DHT22;5269;51.146;16.986;2024-01-25T15:22:11;7.70;99.90
10443;DHT22;5269;51.146;16.986;2024-01-25T15:24:37;7.70;99.90
10443;DHT22;5269;51.146;16.986;2024-01-25T15:27:04;7.60;99.90
10443;DHT22;5269;51.146;16.986;2024-01-25T15:29:42;7.60;99.90
10443;DHT22;5269;51.146;16.986;2024-01-25T15:36:03;7.60;99.90
10443;DHT22;5269;51.146;16.986;2024-01-25T15:45:56;7.50;99.90
10443;DHT22;5269;51.146;16.986;2024-01-25T15:55:20;7.40;1.00
10443;DHT22;5269;51.146;16.986;2024-01-25T16:08:21;7.50;1.00
10443;DHT22;5269;51.146;16.986;2024-01-25T16:14:40;7.40;1.00
10443;DHT22;5269;51.146;16.986;2024-01-25T16:20:30;7.50;1.00
10443;DHT22;5269;51.146;16.986;2024-01-25T16:22:57;7.50;1.00
10443;DHT22;5269;51.146;16.986;2024-01-25T16:25:24;7.40;1.00
10443;DHT22;5269;51.146;16.986;2024-01-25T16:27:52;7.50;1.00
10443;DHT22;5269;51.146;16.986;2024-01-25T16:30:20;7.40;1.00
10443;DHT22;5269;51.146;16.986;2024-01-25T16:32:47;7.40;1.00
10443;DHT22;5269;51.146;16.986;2024-01-25T16:35:14;7.40;1.00
10443;DHT22;5269;51.146;16.986;2024-01-25T16:37:41;7.40;1.00
10443;DHT22;5269;51.146;16.986;2024-01-25T16:40:09;7.40;1.00
10443;DHT22;5269;51.146;16.986;2024-01-25T16:42:46;7.40;1.00
10443;DHT22;5269;51.146;16.986;2024-01-25T16:48:41;7.40;1.00
10443;DHT22;5269;51.146;16.986;2024-01-25T16:51:09;7.40;1.00
10443;DHT22;5269;51.146;16.986;2024-01-25T16:53:36;7.40;1.00
10443;DHT22;5269;51.146;16.986;2024-01-25T16:56:03;7.40;1.00
10443;DHT22;5269;51.146;16.986;2024-01-25T16:58:30;7.30;1.00
10443;DHT22;5269;51.146;16.986;2024-01-25T17:00:57;7.30;1.00
10443;DHT22;5269;51.146;16.986;2024-01-25T17:03:28;7.40;1.00
10443;DHT22;5269;51.146;16.986;2024-01-25T17:28:06;7.40;1.00
10443;DHT22;5269;51.146;16.986;2024-01-25T17:30:33;7.40;1.00
10443;DHT22;5269;51.146;16.986;2024-01-25T17:33:00;7.30;1.00
10443;DHT22;5269;51.146;16.986;2024-01-25T17:35:27;7.30;1.00
10443;DHT22;5269;51.146;16.986;2024-01-25T17:37:54;7.30;1.00
10443;DHT22;5269;51.146;16.986;2024-01-25T17:40:21;7.30;1.00
10443;DHT22;5269;51.146;16.986;2024-01-25T17:42:49;7.30;1.00
10443;DHT22;5269;51.146;16.986;2024-01-25T17:45:18;7.30;1.00
10443;DHT22;5269;51.146;16.986;2024-01-25T17:47:45;7.30;1.00
10443;DHT22;5269;51.146;16.986;2024-01-25T17:50:12;7.30;1.00
10443;DHT22;5269;51.146;16.986;2024-01-25T17:53:08;7.20;1.00